Flight Track Log - Related Links

Times and Time Zones

All times are in EDT time to prevent confusion due to time zone crossing. See the BLS502 flight status page for this flight to view local times or setup timezone preferences in your user account.

Time Position Orientation Groundspeed Altitude Reporting Facility
EDT Latitude Longitude Course Direction KTS MPH feet Rate Location/Type
Sun 07:39:06 PM 45.3500 -75.7167 295° West 170 196 3,900  Level Toronto Center
Sun 07:39:57 PM 45.3667 -75.8167 283° West 200 230 5,800 2,216 Climbing Montreal Center
Sun 07:40:57 PM 45.3833 -75.9167 283° West 220 253 8,000 1,650 Climbing Montreal Center
Sun 07:41:57 PM 45.4000 -76.0000 286° West 230 265 9,100 1,000 Climbing Montreal Center
Sun 07:42:00 PM 45.4667 -76.1211 270° West  Level FlightAware Approximate
Sun 07:42:57 PM 45.4167 -76.0833 286° West 250 288 10,000  Level Montreal Center
Sun 07:43:00 PM 45.4739 -76.2051 295° West  Level FlightAware Approximate
Sun 07:43:58 PM 45.4333 -76.1833 283° West 250 288 10,800  Level Montreal Center
Sun 07:44:57 PM 45.4500 -76.2833 283° West 250 288 11,300 605 Climbing Montreal Center
Sun 07:45:57 PM 45.4500 -76.3667 270° West 250 288 12,000 550 Climbing Montreal Center
Sun 07:46:57 PM 45.4667 -76.4667 283° West 250 288 12,400 550 Climbing Montreal Center
Sun 07:47:57 PM 45.4833 -76.5667 283° West 250 288 13,100 605 Climbing Montreal Center
Sun 07:49:06 PM 45.5167 -76.6500 300° West 250 288 13,700 422 Climbing Toronto Center
Sun 07:50:05 PM 45.5333 -76.7500 283° West 250 288 14,000 202 Climbing Toronto Center
Sun 07:51:05 PM 45.5500 -76.8500 283° West 260 299 14,100 50 Climbing Toronto Center
Sun 07:52:05 PM 45.5667 -76.9333 286° West 260 299 14,100 -54 Level Toronto Center
Sun 07:52:57 PM 45.5833 -77.0667 280° West 270 311 14,000 -54 Descending Montreal Center
Sun 07:53:57 PM 45.6000 -77.1667 283° West 270 311 14,000  Level Montreal Center
Sun 07:54:57 PM 45.6167 -77.2833 282° West 260 299 14,000 50 Level Montreal Center
Sun 07:55:57 PM 45.6333 -77.3833 283° West 270 311 14,100  Climbing Montreal Center
Sun 07:56:57 PM 45.6333 -77.4833 270° West 270 311 14,000 -50 Descending Montreal Center
Sun 07:57:57 PM 45.6500 -77.5667 286° West 270 311 14,000  Level Montreal Center
Sun 07:58:57 PM 45.6833 -77.7000 290° West 260 299 14,000  Level Montreal Center
Sun 07:59:57 PM 45.7000 -77.7667 290° West 250 288 14,000  Level Montreal Center
Sun 08:00:57 PM 45.7333 -77.8667 296° West 240 276 14,000  Level Montreal Center
Sun 08:01:57 PM 45.7500 -77.9667 283° West 240 276 14,000  Level Montreal Center
Sun 08:03:06 PM 45.7833 -78.0333 306° West 240 276 14,000 -50 Level Toronto Center
Sun 08:03:57 PM 45.8000 -78.1333 283° West 240 276 13,900  Descending Montreal Center
Sun 08:04:05 PM 45.8000 -78.1333 283° West 240 276 14,000  Climbing Toronto Center
Sun 08:04:57 PM 45.8167 -78.2333 283° West 240 276 13,900 -54 Descending Montreal Center
Sun 08:05:57 PM 45.8500 -78.3333 296° West 240 276 13,900 94 Level Montreal Center
Sun 08:07:05 PM 45.8833 -78.3833 314° West 240 276 14,100 93 Climbing Toronto Center
Sun 08:08:06 PM 45.9167 -78.4833 296° West 240 276 14,100  Level Toronto Center
Sun 08:09:06 PM 45.9500 -78.5500 306° West 240 276 14,100  Level Toronto Center
Sun 08:10:05 PM 45.9667 -78.6500 284° West 240 276 14,100  Level Toronto Center
Sun 08:11:05 PM 46.0000 -78.7167 306° West 240 276 14,100  Level Toronto Center
Sun 08:12:05 PM 46.0167 -78.8167 284° West 240 276 14,100  Level Toronto Center
Sun 08:13:05 PM 46.0500 -78.9167 296° West 240 276 14,100 -50 Level Toronto Center
Sun 08:14:06 PM 46.0667 -79.0000 286° West 240 276 14,000  Descending Toronto Center
Sun 08:15:05 PM 46.1000 -79.0833 300° West 240 276 14,100 50 Climbing Toronto Center
Sun 08:16:05 PM 46.1333 -79.1667 300° West 240 276 14,100  Level Toronto Center
Sun 08:17:06 PM 46.1500 -79.2667 284° West 240 276 14,100  Level Toronto Center
Sun 08:18:06 PM 46.1667 -79.3500 286° West 240 276 14,100  Level Toronto Center
Sun 08:19:06 PM 46.1833 -79.4333 286° West 240 276 14,100  Level Toronto Center
Sun 08:20:06 PM 46.2167 -79.5333 296° West 240 276 14,100  Level Toronto Center
Sun 08:21:06 PM 46.2333 -79.6333 284° West 240 276 14,100  Level Toronto Center
Sun 08:22:06 PM 46.2667 -79.7333 296° West 240 276 14,100  Level Toronto Center
Sun 08:23:06 PM 46.2833 -79.8000 290° West 240 276 14,100  Level Toronto Center
Sun 08:24:06 PM 46.3167 -79.9000 296° West 240 276 14,100  Level Toronto Center
Sun 08:25:06 PM 46.3333 -80.0000 284° West 240 276 14,100  Level Toronto Center
Sun 08:26:06 PM 46.3667 -80.0667 306° West 240 276 14,100 -50 Level Toronto Center
Sun 08:27:06 PM 46.3833 -80.1667 284° West 240 276 14,000 -50 Descending Toronto Center
Sun 08:28:06 PM 46.4167 -80.2667 296° West 240 276 14,000  Level Toronto Center
Sun 08:29:06 PM 46.4333 -80.3500 286° West 240 276 14,000 50 Level Toronto Center
Sun 08:30:06 PM 46.4667 -80.4333 300° West 230 265 14,100 50 Climbing Toronto Center
Sun 08:31:06 PM 46.5000 -80.5333 296° West 230 265 14,100  Level Toronto Center
Sun 08:32:06 PM 46.5167 -80.6000 290° West 230 265 14,100  Level Toronto Center
Sun 08:33:06 PM 46.5333 -80.7000 284° West 230 265 14,100  Level Toronto Center
Sun 08:34:06 PM 46.5667 -80.8000 296° West 230 265 14,100 -50 Level Toronto Center
Sun 08:35:06 PM 46.5833 -80.8667 290° West 230 265 14,000 -50 Descending Toronto Center
Sun 08:36:06 PM 46.6000 -80.9667 284° West 230 265 14,000  Level Toronto Center
Sun 08:37:06 PM 46.6167 -81.0333 290° West 230 265 14,000  Level Toronto Center
Sun 08:38:06 PM 46.6500 -81.1333 296° West 230 265 14,000 50 Level Toronto Center
Sun 08:39:06 PM 46.6667 -81.2167 286° West 230 265 14,100 50 Climbing Toronto Center
Sun 08:40:06 PM 46.6833 -81.3167 284° West 230 265 14,100  Level Toronto Center
Sun 08:41:06 PM 46.7167 -81.4000 300° West 230 265 14,100 -50 Level Toronto Center
Sun 08:42:06 PM 46.7333 -81.4833 286° West 230 265 14,000 -50 Descending Toronto Center
Sun 08:43:06 PM 46.7667 -81.5833 296° West 230 265 14,000  Level Toronto Center
Sun 08:44:06 PM 46.7833 -81.6500 290° West 230 265 14,000 50 Level Toronto Center
Sun 08:45:06 PM 46.8000 -81.7500 284° West 230 265 14,100 50 Climbing Toronto Center
Sun 08:46:06 PM 46.8333 -81.8500 296° West 230 265 14,100 -54 Level Toronto Center
Sun 08:46:58 PM 46.8333 -81.9500 270° West 230 265 14,000 -54 Descending Montreal Center
Sun 08:47:58 PM 46.8667 -82.0333 300° West 240 276 14,000 -50 Level Montreal Center
Sun 08:48:58 PM 46.9000 -82.1333 296° West 240 276 13,900 -50 Descending Montreal Center
Sun 08:49:58 PM 46.9000 -82.2333 270° West 230 265 13,900  Level Montreal Center
Sun 08:50:58 PM 46.9333 -82.3167 300° West 240 276 13,900 47 Level Montreal Center
Sun 08:52:06 PM 46.9500 -82.3833 290° West 230 265 14,000 94 Climbing Toronto Center
Sun 08:53:06 PM 46.9667 -82.4667 286° West 240 276 14,100 50 Climbing Toronto Center
Sun 08:54:06 PM 47.0000 -82.5667 296° West 240 276 14,100  Level Toronto Center
Sun 08:55:06 PM 47.0333 -82.6667 296° West 240 276 14,100 -50 Level Toronto Center
Sun 08:56:06 PM 47.0333 -82.7667 270° West 240 276 14,000 -50 Descending Toronto Center
Sun 08:57:06 PM 47.0500 -82.8333 290° West 240 276 14,000  Level Toronto Center
Sun 08:58:06 PM 47.0833 -82.9333 296° West 240 276 14,000  Level Toronto Center
Sun 08:59:06 PM 47.1000 -83.0167 286° West 230 265 14,000  Level Toronto Center
Sun 09:00:06 PM 47.1333 -83.1167 296° West 240 276 14,000  Level Toronto Center
Sun 09:01:06 PM 47.1500 -83.2167 284° West 240 276 14,000 50 Level Toronto Center
Sun 09:02:06 PM 47.1667 -83.3167 284° West 240 276 14,100  Climbing Toronto Center
Sun 09:03:06 PM 47.1833 -83.3833 290° West 240 276 14,000  Descending Toronto Center
Sun 09:04:06 PM 47.2000 -83.4833 284° West 240 276 14,100  Climbing Toronto Center
Sun 09:05:06 PM 47.2333 -83.5833 296° West 240 276 14,000 -100 Descending Toronto Center
Sun 09:06:06 PM 47.2500 -83.6667 286° West 240 276 13,900  Descending Toronto Center
Sun 09:07:06 PM 47.2667 -83.7500 286° West 240 276 14,000 50 Climbing Toronto Center
Sun 09:08:06 PM 47.2833 -83.8667 282° West 240 276 14,000  Level Toronto Center
Sun 09:09:06 PM 47.3000 -83.9500 286° West 240 276 14,000 -50 Level Toronto Center
Sun 09:10:06 PM 47.3333 -84.0333 301° West 240 276 13,900  Descending Toronto Center
Sun 09:11:06 PM 47.3500 -84.1333 284° West 240 276 14,000 50 Climbing Toronto Center
Sun 09:12:06 PM 47.3833 -84.2333 296° West 240 276 14,000  Level Toronto Center
Sun 09:13:06 PM 47.3833 -84.3333 270° West 240 276 14,000 50 Level Toronto Center
Sun 09:14:06 PM 47.4167 -84.4167 301° West 240 276 14,100 50 Climbing Toronto Center
Sun 09:15:06 PM 47.4333 -84.5167 284° West 240 276 14,100  Level Toronto Center
Sun 09:16:06 PM 47.4667 -84.5833 307° West 240 276 14,100  Level Toronto Center
Sun 09:17:06 PM 47.4667 -84.6833 270° West 240 276 14,100 -50 Level Toronto Center
Sun 09:18:06 PM 47.5000 -84.7833 296° West 240 276 14,000 -50 Descending Toronto Center
Sun 09:19:06 PM 47.5167 -84.8833 284° West 240 276 14,000  Level Toronto Center
Sun 09:20:06 PM 47.5500 -84.9667 301° West 240 276 14,000 50 Level Toronto Center
Sun 09:21:06 PM 47.5500 -85.0667 270° West 240 276 14,100  Climbing Toronto Center
Sun 09:22:06 PM 47.5833 -85.1667 296° West 240 276 14,000 -50 Descending Toronto Center
Sun 09:23:06 PM 47.6000 -85.2667 284° West 250 288 14,000 50 Level Toronto Center
Sun 09:24:06 PM 47.6333 -85.3500 301° West 250 288 14,100 50 Climbing Toronto Center
Sun 09:25:06 PM 47.6333 -85.4500 270° West 240 276 14,100  Level Toronto Center
Sun 09:26:06 PM 47.6667 -85.5500 296° West 250 288 14,100  Level Toronto Center
Sun 09:27:06 PM 47.7000 -85.6500 296° West 250 288 14,100  Level Toronto Center
Sun 09:28:06 PM 47.7167 -85.7333 287° West 250 288 14,100  Level Toronto Center
Sun 09:29:06 PM 47.7333 -85.8500 282° West 250 288 14,100  Level Toronto Center
Sun 09:30:06 PM 47.7500 -85.9333 287° West 250 288 14,100 -50 Level Toronto Center
Sun 09:31:06 PM 47.7833 -86.0333 296° West 250 288 14,000 35 Descending Toronto Center
Sun 09:32:58 PM 47.8167 -86.2667 282° West 250 288 14,200  Climbing Montreal Center
Sun 09:33:34 PM 47.8167 -86.2167 90° East 250 288 14,000 -94 Descending Winnipeg Center
Sun 09:35:06 PM 47.8500 -86.4333 283° West 250 288 14,000  Level Toronto Center
Sun 09:36:06 PM 47.8667 -86.5333 284° West 250 288 14,000  Level Toronto Center
Sun 09:37:06 PM 47.8833 -86.6500 282° West 260 299 14,000  Level Toronto Center
Sun 09:38:06 PM 47.9167 -86.7500 296° West 260 299 14,000  Level Toronto Center
Sun 09:38:52 PM 47.9333 -86.8167 290° West 240 276 14,000  Level Toronto Center
Sun 09:39:34 PM 47.9333 -86.8500 270° West 250 288 14,000  Level Winnipeg Center
Sun 09:40:34 PM 47.9333 -86.9500 270° West 260 299 14,000  Level Winnipeg Center
Sun 09:41:34 PM 47.9667 -87.0333 301° West 260 299 14,000 50 Level Winnipeg Center
Sun 09:42:34 PM 47.9833 -87.1667 281° West 260 299 14,100 50 Climbing Winnipeg Center
Sun 09:43:34 PM 48.0167 -87.2500 301° West 260 299 14,100  Level Winnipeg Center
Sun 09:44:34 PM 48.0167 -87.3500 270° West 260 299 14,100  Level Winnipeg Center
Sun 09:45:34 PM 48.0333 -87.4833 281° West 260 299 14,100  Level Winnipeg Center
Sun 09:46:34 PM 48.0500 -87.5667 287° West 260 299 14,100  Level Winnipeg Center
Sun 09:47:34 PM 48.0667 -87.6667 284° West 260 299 14,100  Level Winnipeg Center
Sun 09:48:34 PM 48.1000 -87.8000 291° West 270 311 14,100  Level Winnipeg Center
Sun 09:49:34 PM 48.1167 -87.8833 287° West 260 299 14,100  Level Winnipeg Center
Sun 09:50:34 PM 48.1333 -87.9833 284° West 270 311 14,100  Level Winnipeg Center
Sun 09:51:34 PM 48.1500 -88.1167 281° West 270 311 14,100  Level Winnipeg Center
Sun 09:52:34 PM 48.1833 -88.2000 301° West 270 311 14,100  Level Winnipeg Center
Sun 09:53:34 PM 48.1833 -88.3333 270° West 270 311 14,100 -150 Level Winnipeg Center
Sun 09:54:34 PM 48.2167 -88.4333 297° West 270 311 13,800 -950 Descending Winnipeg Center
Sun 09:55:34 PM 48.2333 -88.5500 282° West 290 334 12,200 -1,850 Descending Winnipeg Center
Sun 09:56:34 PM 48.2500 -88.6667 282° West 290 334 10,100 -2,100 Descending Winnipeg Center
Sun 09:57:34 PM 48.2667 -88.8000 281° West 280 322 8,000 -1,950 Descending Winnipeg Center
Sun 09:58:34 PM 48.2833 -88.9000 284° West 280 322 6,200 -1,650 Descending Winnipeg Center
Sun 09:59:34 PM 48.3000 -88.9833 287° West 250 288 4,700 -1,400 Descending Winnipeg Center
Sun 10:00:34 PM 48.3167 -89.0833 284° West 240 276 3,400 -1,100 Descending Winnipeg Center
Sun 10:01:34 PM 48.3167 -89.1667 270° West 180 207 2,500 -900 Descending Winnipeg Center
Sun 10:02:34 PM 48.3333 -89.2333 291° West 170 196 1,600 -900 Descending Winnipeg Center
Sun 10:03:34 PM 48.3667 -89.2833 315° West 120 138 700 -900 Descending Winnipeg Center

Login

Don't have an account? Register now (free) for customized features, flight alerts, and more!